sensor_id;sensor_type;location;lat;lon;timestamp;P1;durP1;ratioP1;P2;durP2;ratioP2
80115;SDS011;69423;47.608;19.366;2023-11-18T00:00:16;10.60;;;10.37;;
80115;SDS011;69423;47.608;19.366;2023-11-18T00:00:47;10.10;;;10.10;;
80115;SDS011;69423;47.608;19.366;2023-11-18T00:01:18;10.07;;;10.00;;
80115;SDS011;69423;47.608;19.366;2023-11-18T00:01:49;10.63;;;10.47;;
80115;SDS011;69423;47.608;19.366;2023-11-18T00:02:20;10.87;;;10.50;;
80115;SDS011;69423;47.608;19.366;2023-11-18T00:02:51;10.97;;;10.57;;
80115;SDS011;69423;47.608;19.366;2023-11-18T00:03:22;10.57;;;10.17;;
80115;SDS011;69423;47.608;19.366;2023-11-18T00:03:54;10.47;;;10.30;;
80115;SDS011;69423;47.608;19.366;2023-11-18T00:04:25;10.53;;;10.23;;
80115;SDS011;69423;47.608;19.366;2023-11-18T00:04:56;11.53;;;11.13;;
80115;SDS011;69423;47.608;19.366;2023-11-18T00:05:27;10.97;;;10.60;;
80115;SDS011;69423;47.608;19.366;2023-11-18T00:05:58;9.83;;;9.77;;
80115;SDS011;69423;47.608;19.366;2023-11-18T00:06:30;10.93;;;10.57;;
80115;SDS011;69423;47.608;19.366;2023-11-18T00:07:01;11.47;;;11.07;;
80115;SDS011;69423;47.608;19.366;2023-11-18T00:07:34;11.20;;;10.80;;
80115;SDS011;69423;47.608;19.366;2023-11-18T00:08:05;12.27;;;11.80;;
80115;SDS011;69423;47.608;19.366;2023-11-18T00:08:37;11.87;;;11.47;;
80115;SDS011;69423;47.608;19.366;2023-11-18T00:09:08;11.80;;;11.37;;
80115;SDS011;69423;47.608;19.366;2023-11-18T00:09:39;11.13;;;10.77;;
80115;SDS011;69423;47.608;19.366;2023-11-18T00:10:10;10.97;;;10.67;;
80115;SDS011;69423;47.608;19.366;2023-11-18T00:10:42;11.93;;;11.63;;
80115;SDS011;69423;47.608;19.366;2023-11-18T00:11:13;11.00;;;10.73;;
80115;SDS011;69423;47.608;19.366;2023-11-18T00:11:44;10.47;;;10.17;;
80115;SDS011;69423;47.608;19.366;2023-11-18T00:12:15;11.27;;;10.87;;
80115;SDS011;69423;47.608;19.366;2023-11-18T00:12:46;11.97;;;11.47;;
80115;SDS011;69423;47.608;19.366;2023-11-18T00:13:17;11.90;;;11.37;;
80115;SDS011;69423;47.608;19.366;2023-11-18T00:13:48;11.37;;;11.03;;
80115;SDS011;69423;47.608;19.366;2023-11-18T00:14:19;11.53;;;11.13;;
80115;SDS011;69423;47.608;19.366;2023-11-18T00:14:51;11.50;;;11.00;;
80115;SDS011;69423;47.608;19.366;2023-11-18T00:15:22;11.17;;;10.67;;
80115;SDS011;69423;47.608;19.366;2023-11-18T00:15:53;10.57;;;10.13;;
80115;SDS011;69423;47.608;19.366;2023-11-18T00:16:24;10.93;;;10.73;;
80115;SDS011;69423;47.608;19.366;2023-11-18T00:16:57;11.60;;;11.20;;
80115;SDS011;69423;47.608;19.366;2023-11-18T00:17:32;11.63;;;11.23;;
80115;SDS011;69423;47.608;19.366;2023-11-18T00:18:03;11.60;;;11.17;;
80115;SDS011;69423;47.608;19.366;2023-11-18T00:18:35;11.40;;;11.00;;
80115;SDS011;69423;47.608;19.366;2023-11-18T00:19:06;10.97;;;10.73;;
80115;SDS011;69423;47.608;19.366;2023-11-18T00:19:37;11.33;;;11.10;;
80115;SDS011;69423;47.608;19.366;2023-11-18T00:20:08;11.13;;;11.00;;
80115;SDS011;69423;47.608;19.366;2023-11-18T00:20:40;11.20;;;11.07;;
80115;SDS011;69423;47.608;19.366;2023-11-18T00:21:11;11.40;;;11.23;;
80115;SDS011;69423;47.608;19.366;2023-11-18T00:21:42;11.57;;;11.23;;
80115;SDS011;69423;47.608;19.366;2023-11-18T00:22:14;12.47;;;12.07;;
80115;SDS011;69423;47.608;19.366;2023-11-18T00:22:45;11.90;;;11.47;;
80115;SDS011;69423;47.608;19.366;2023-11-18T00:23:17;12.07;;;11.77;;
80115;SDS011;69423;47.608;19.366;2023-11-18T00:23:48;11.80;;;11.50;;
80115;SDS011;69423;47.608;19.366;2023-11-18T00:24:19;11.80;;;11.47;;
80115;SDS011;69423;47.608;19.366;2023-11-18T00:24:50;11.80;;;11.40;;
80115;SDS011;69423;47.608;19.366;2023-11-18T00:25:22;11.67;;;11.27;;
80115;SDS011;69423;47.608;19.366;2023-11-18T00:25:54;12.63;;;12.20;;
80115;SDS011;69423;47.608;19.366;2023-11-18T00:26:25;12.20;;;12.03;;
80115;SDS011;69423;47.608;19.366;2023-11-18T00:26:56;11.70;;;11.70;;
80115;SDS011;69423;47.608;19.366;2023-11-18T00:27:27;12.07;;;11.93;;
80115;SDS011;69423;47.608;19.366;2023-11-18T00:27:58;12.77;;;12.47;;
80115;SDS011;69423;47.608;19.366;2023-11-18T00:28:29;13.27;;;12.77;;
80115;SDS011;69423;47.608;19.366;2023-11-18T00:29:00;12.20;;;11.63;;
80115;SDS011;69423;47.608;19.366;2023-11-18T00:29:32;11.60;;;11.13;;
80115;SDS011;69423;47.608;19.366;2023-11-18T00:30:04;12.37;;;11.87;;
80115;SDS011;69423;47.608;19.366;2023-11-18T00:30:35;13.13;;;12.67;;
80115;SDS011;69423;47.608;19.366;2023-11-18T00:31:06;13.00;;;12.57;;
80115;SDS011;69423;47.608;19.366;2023-11-18T00:31:38;12.27;;;11.87;;
80115;SDS011;69423;47.608;19.366;2023-11-18T00:32:09;11.73;;;11.33;;
80115;SDS011;69423;47.608;19.366;2023-11-18T00:32:40;12.57;;;12.07;;
80115;SDS011;69423;47.608;19.366;2023-11-18T00:33:11;12.93;;;12.37;;
80115;SDS011;69423;47.608;19.366;2023-11-18T00:33:42;13.53;;;12.93;;
80115;SDS011;69423;47.608;19.366;2023-11-18T00:34:13;13.43;;;12.80;;
80115;SDS011;69423;47.608;19.366;2023-11-18T00:34:44;13.33;;;12.63;;
80115;SDS011;69423;47.608;19.366;2023-11-18T00:35:15;12.60;;;11.90;;
80115;SDS011;69423;47.608;19.366;2023-11-18T00:35:46;12.20;;;11.60;;
80115;SDS011;69423;47.608;19.366;2023-11-18T00:36:18;12.77;;;12.23;;
80115;SDS011;69423;47.608;19.366;2023-11-18T00:36:49;13.13;;;12.60;;
80115;SDS011;69423;47.608;19.366;2023-11-18T00:37:20;12.90;;;12.50;;
80115;SDS011;69423;47.608;19.366;2023-11-18T00:37:51;12.07;;;11.70;;
80115;SDS011;69423;47.608;19.366;2023-11-18T00:38:22;12.53;;;12.20;;
80115;SDS011;69423;47.608;19.366;2023-11-18T00:38:53;12.27;;;11.83;;
80115;SDS011;69423;47.608;19.366;2023-11-18T00:39:25;12.43;;;11.93;;
80115;SDS011;69423;47.608;19.366;2023-11-18T00:39:57;12.57;;;12.13;;
80115;SDS011;69423;47.608;19.366;2023-11-18T00:40:29;11.50;;;11.40;;
80115;SDS011;69423;47.608;19.366;2023-11-18T00:41:00;12.27;;;12.00;;
80115;SDS011;69423;47.608;19.366;2023-11-18T00:41:31;12.03;;;11.73;;
80115;SDS011;69423;47.608;19.366;2023-11-18T00:42:02;11.80;;;11.60;;
80115;SDS011;69423;47.608;19.366;2023-11-18T00:42:33;12.43;;;12.23;;
80115;SDS011;69423;47.608;19.366;2023-11-18T00:43:04;12.67;;;12.33;;
80115;SDS011;69423;47.608;19.366;2023-11-18T00:43:35;12.47;;;12.03;;
80115;SDS011;69423;47.608;19.366;2023-11-18T00:44:06;11.93;;;11.47;;
80115;SDS011;69423;47.608;19.366;2023-11-18T00:44:39;12.37;;;11.93;;
80115;SDS011;69423;47.608;19.366;2023-11-18T00:45:10;12.07;;;11.67;;
80115;SDS011;69423;47.608;19.366;2023-11-18T00:45:43;11.93;;;11.53;;
80115;SDS011;69423;47.608;19.366;2023-11-18T00:46:14;12.43;;;11.93;;
80115;SDS011;69423;47.608;19.366;2023-11-18T00:46:45;12.23;;;11.73;;
80115;SDS011;69423;47.608;19.366;2023-11-18T00:47:16;11.90;;;11.53;;
80115;SDS011;69423;47.608;19.366;2023-11-18T00:47:47;12.33;;;12.03;;
80115;SDS011;69423;47.608;19.366;2023-11-18T00:48:18;11.63;;;11.37;;
80115;SDS011;69423;47.608;19.366;2023-11-18T00:48:49;11.50;;;11.17;;
80115;SDS011;69423;47.608;19.366;2023-11-18T00:49:20;11.83;;;11.47;;
80115;SDS011;69423;47.608;19.366;2023-11-18T00:49:52;11.53;;;11.47;;
80115;SDS011;69423;47.608;19.366;2023-11-18T00:50:24;11.93;;;11.60;;
80115;SDS011;69423;47.608;19.366;2023-11-18T00:50:55;12.17;;;11.73;;
80115;SDS011;69423;47.608;19.366;2023-11-18T00:51:26;12.03;;;11.57;;
80115;SDS011;69423;47.608;19.366;2023-11-18T00:51:58;12.33;;;11.83;;
80115;SDS011;69423;47.608;19.366;2023-11-18T00:52:29;13.07;;;12.57;;
80115;SDS011;69423;47.608;19.366;2023-11-18T00:53:00;11.70;;;11.27;;
80115;SDS011;69423;47.608;19.366;2023-11-18T00:53:31;11.67;;;11.27;;
80115;SDS011;69423;47.608;19.366;2023-11-18T00:54:02;11.57;;;11.20;;
80115;SDS011;69423;47.608;19.366;2023-11-18T00:54:36;12.23;;;11.83;;
80115;SDS011;69423;47.608;19.366;2023-11-18T00:55:07;13.20;;;12.70;;
80115;SDS011;69423;47.608;19.366;2023-11-18T00:55:41;12.50;;;11.83;;
80115;SDS011;69423;47.608;19.366;2023-11-18T00:56:15;12.77;;;12.17;;
80115;SDS011;69423;47.608;19.366;2023-11-18T00:56:48;12.90;;;12.40;;
80115;SDS011;69423;47.608;19.366;2023-11-18T00:57:19;12.33;;;11.93;;
80115;SDS011;69423;47.608;19.366;2023-11-18T00:57:50;11.83;;;11.40;;
80115;SDS011;69423;47.608;19.366;2023-11-18T00:58:21;11.77;;;11.37;;
80115;SDS011;69423;47.608;19.366;2023-11-18T00:58:52;11.70;;;11.37;;
80115;SDS011;69423;47.608;19.366;2023-11-18T00:59:23;11.70;;;11.67;;
80115;SDS011;69423;47.608;19.366;2023-11-18T00:59:54;11.63;;;11.47;;
80115;SDS011;69423;47.608;19.366;2023-11-18T01:00:26;11.73;;;11.43;;
80115;SDS011;69423;47.608;19.366;2023-11-18T01:00:57;11.50;;;11.40;;
80115;SDS011;69423;47.608;19.366;2023-11-18T01:01:28;11.53;;;11.43;;
80115;SDS011;69423;47.608;19.366;2023-11-18T01:01:59;12.43;;;12.03;;
80115;SDS011;69423;47.608;19.366;2023-11-18T01:02:30;11.70;;;11.27;;
80115;SDS011;69423;47.608;19.366;2023-11-18T01:03:01;11.43;;;11.13;;
80115;SDS011;69423;47.608;19.366;2023-11-18T01:03:33;11.03;;;10.83;;
80115;SDS011;69423;47.608;19.366;2023-11-18T01:04:04;11.13;;;11.00;;
80115;SDS011;69423;47.608;19.366;2023-11-18T01:04:36;10.93;;;10.57;;
80115;SDS011;69423;47.608;19.366;2023-11-18T01:05:07;11.40;;;10.97;;
80115;SDS011;69423;47.608;19.366;2023-11-18T01:05:41;12.57;;;11.97;;
80115;SDS011;69423;47.608;19.366;2023-11-18T01:06:12;12.73;;;12.07;;
80115;SDS011;69423;47.608;19.366;2023-11-18T01:06:45;11.47;;;11.10;;
80115;SDS011;69423;47.608;19.366;2023-11-18T01:07:17;11.73;;;11.40;;
80115;SDS011;69423;47.608;19.366;2023-11-18T01:07:49;11.67;;;11.23;;
80115;SDS011;69423;47.608;19.366;2023-11-18T01:08:20;12.67;;;12.13;;
80115;SDS011;69423;47.608;19.366;2023-11-18T01:08:51;12.87;;;12.27;;
80115;SDS011;69423;47.608;19.366;2023-11-18T01:09:22;12.30;;;11.77;;
80115;SDS011;69423;47.608;19.366;2023-11-18T01:09:53;11.50;;;11.10;;
80115;SDS011;69423;47.608;19.366;2023-11-18T01:10:24;11.83;;;11.40;;
80115;SDS011;69423;47.608;19.366;2023-11-18T01:10:55;11.83;;;11.40;;
80115;SDS011;69423;47.608;19.366;2023-11-18T01:11:26;11.67;;;11.17;;
80115;SDS011;69423;47.608;19.366;2023-11-18T01:11:57;12.30;;;11.77;;
80115;SDS011;69423;47.608;19.366;2023-11-18T01:12:29;11.57;;;11.10;;
80115;SDS011;69423;47.608;19.366;2023-11-18T01:13:00;10.93;;;10.53;;
80115;SDS011;69423;47.608;19.366;2023-11-18T01:13:31;11.70;;;11.23;;
80115;SDS011;69423;47.608;19.366;2023-11-18T01:14:02;11.53;;;11.13;;
80115;SDS011;69423;47.608;19.366;2023-11-18T01:14:33;11.43;;;11.03;;
80115;SDS011;69423;47.608;19.366;2023-11-18T01:15:05;11.40;;;11.03;;
80115;SDS011;69423;47.608;19.366;2023-11-18T01:15:37;10.63;;;10.60;;
80115;SDS011;69423;47.608;19.366;2023-11-18T01:16:08;10.70;;;10.53;;
80115;SDS011;69423;47.608;19.366;2023-11-18T01:16:39;11.60;;;11.27;;
80115;SDS011;69423;47.608;19.366;2023-11-18T01:17:10;11.43;;;11.33;;
80115;SDS011;69423;47.608;19.366;2023-11-18T01:17:41;11.03;;;11.03;;
80115;SDS011;69423;47.608;19.366;2023-11-18T01:18:12;10.63;;;10.63;;
80115;SDS011;69423;47.608;19.366;2023-11-18T01:18:43;11.20;;;11.03;;
80115;SDS011;69423;47.608;19.366;2023-11-18T01:19:14;11.13;;;10.80;;
80115;SDS011;69423;47.608;19.366;2023-11-18T01:19:45;12.07;;;11.63;;
80115;SDS011;69423;47.608;19.366;2023-11-18T01:20:16;11.97;;;11.50;;
80115;SDS011;69423;47.608;19.366;2023-11-18T01:20:52;11.70;;;11.20;;
80115;SDS011;69423;47.608;19.366;2023-11-18T01:21:23;11.43;;;10.93;;
80115;SDS011;69423;47.608;19.366;2023-11-18T01:21:54;11.80;;;11.37;;
80115;SDS011;69423;47.608;19.366;2023-11-18T01:22:26;11.47;;;11.07;;
80115;SDS011;69423;47.608;19.366;2023-11-18T01:22:57;11.13;;;10.77;;
80115;SDS011;69423;47.608;19.366;2023-11-18T01:23:28;10.70;;;10.37;;
80115;SDS011;69423;47.608;19.366;2023-11-18T01:23:59;10.93;;;10.60;;
80115;SDS011;69423;47.608;19.366;2023-11-18T01:24:30;11.60;;;11.20;;
80115;SDS011;69423;47.608;19.366;2023-11-18T01:25:02;10.50;;;10.30;;
80115;SDS011;69423;47.608;19.366;2023-11-18T01:25:33;10.63;;;10.63;;
80115;SDS011;69423;47.608;19.366;2023-11-18T01:26:05;11.03;;;11.03;;
80115;SDS011;69423;47.608;19.366;2023-11-18T01:26:36;10.97;;;10.93;;
80115;SDS011;69423;47.608;19.366;2023-11-18T01:27:07;11.07;;;11.07;;
80115;SDS011;69423;47.608;19.366;2023-11-18T01:27:40;11.70;;;11.60;;
80115;SDS011;69423;47.608;19.366;2023-11-18T01:28:11;11.43;;;11.33;;
80115;SDS011;69423;47.608;19.366;2023-11-18T01:28:42;11.83;;;11.53;;
80115;SDS011;69423;47.608;19.366;2023-11-18T01:29:14;10.87;;;10.70;;
80115;SDS011;69423;47.608;19.366;2023-11-18T01:29:45;11.53;;;11.17;;
80115;SDS011;69423;47.608;19.366;2023-11-18T01:30:17;11.03;;;10.57;;
80115;SDS011;69423;47.608;19.366;2023-11-18T01:30:49;11.87;;;11.27;;
80115;SDS011;69423;47.608;19.366;2023-11-18T01:31:20;11.80;;;11.33;;
80115;SDS011;69423;47.608;19.366;2023-11-18T01:31:51;11.37;;;11.07;;
80115;SDS011;69423;47.608;19.366;2023-11-18T01:32:23;10.37;;;10.27;;
80115;SDS011;69423;47.608;19.366;2023-11-18T01:32:54;10.97;;;10.60;;
80115;SDS011;69423;47.608;19.366;2023-11-18T01:33:25;11.70;;;11.27;;
80115;SDS011;69423;47.608;19.366;2023-11-18T01:33:57;11.83;;;11.40;;
80115;SDS011;69423;47.608;19.366;2023-11-18T01:34:28;12.07;;;11.67;;
80115;SDS011;69423;47.608;19.366;2023-11-18T01:34:59;11.03;;;10.87;;
80115;SDS011;69423;47.608;19.366;2023-11-18T01:35:30;11.30;;;10.93;;
80115;SDS011;69423;47.608;19.366;2023-11-18T01:36:01;11.43;;;11.13;;
80115;SDS011;69423;47.608;19.366;2023-11-18T01:36:33;11.10;;;11.10;;
80115;SDS011;69423;47.608;19.366;2023-11-18T01:37:05;10.83;;;10.67;;
80115;SDS011;69423;47.608;19.366;2023-11-18T01:37:38;10.90;;;10.53;;
80115;SDS011;69423;47.608;19.366;2023-11-18T01:38:09;10.47;;;10.40;;
80115;SDS011;69423;47.608;19.366;2023-11-18T01:38:42;11.73;;;11.27;;
80115;SDS011;69423;47.608;19.366;2023-11-18T01:39:13;11.80;;;11.23;;
80115;SDS011;69423;47.608;19.366;2023-11-18T01:39:44;11.23;;;10.73;;
80115;SDS011;69423;47.608;19.366;2023-11-18T01:40:15;11.37;;;10.83;;
80115;SDS011;69423;47.608;19.366;2023-11-18T01:40:46;12.17;;;11.73;;
80115;SDS011;69423;47.608;19.366;2023-11-18T01:41:18;10.93;;;10.90;;
80115;SDS011;69423;47.608;19.366;2023-11-18T01:41:49;10.37;;;10.37;;
80115;SDS011;69423;47.608;19.366;2023-11-18T01:42:20;10.97;;;10.90;;
80115;SDS011;69423;47.608;19.366;2023-11-18T01:42:51;11.83;;;11.47;;
80115;SDS011;69423;47.608;19.366;2023-11-18T01:43:22;11.60;;;11.13;;
80115;SDS011;69423;47.608;19.366;2023-11-18T01:43:53;11.27;;;10.87;;
80115;SDS011;69423;47.608;19.366;2023-11-18T01:44:25;11.73;;;11.40;;
80115;SDS011;69423;47.608;19.366;2023-11-18T01:44:58;10.87;;;10.73;;
80115;SDS011;69423;47.608;19.366;2023-11-18T01:45:34;10.63;;;10.60;;
80115;SDS011;69423;47.608;19.366;2023-11-18T01:46:05;10.77;;;10.77;;
80115;SDS011;69423;47.608;19.366;2023-11-18T01:46:41;11.57;;;11.43;;
80115;SDS011;69423;47.608;19.366;2023-11-18T01:47:16;11.33;;;11.10;;
80115;SDS011;69423;47.608;19.366;2023-11-18T01:47:47;11.40;;;10.97;;
80115;SDS011;69423;47.608;19.366;2023-11-18T01:48:22;11.23;;;10.77;;
80115;SDS011;69423;47.608;19.366;2023-11-18T01:48:53;11.23;;;10.97;;
80115;SDS011;69423;47.608;19.366;2023-11-18T01:49:24;11.67;;;11.20;;
80115;SDS011;69423;47.608;19.366;2023-11-18T01:50:01;11.37;;;11.17;;
80115;SDS011;69423;47.608;19.366;2023-11-18T01:50:32;11.13;;;10.67;;
80115;SDS011;69423;47.608;19.366;2023-11-18T01:51:04;11.13;;;10.67;;
80115;SDS011;69423;47.608;19.366;2023-11-18T01:51:38;11.00;;;10.70;;
80115;SDS011;69423;47.608;19.366;2023-11-18T01:52:09;10.77;;;10.40;;
80115;SDS011;69423;47.608;19.366;2023-11-18T01:52:41;10.80;;;10.43;;
80115;SDS011;69423;47.608;19.366;2023-11-18T01:53:13;11.50;;;11.10;;
80115;SDS011;69423;47.608;19.366;2023-11-18T01:53:47;11.00;;;10.63;;
80115;SDS011;69423;47.608;19.366;2023-11-18T01:54:21;10.57;;;10.37;;
80115;SDS011;69423;47.608;19.366;2023-11-18T01:54:52;11.80;;;11.33;;
80115;SDS011;69423;47.608;19.366;2023-11-18T01:55:25;12.27;;;11.60;;
80115;SDS011;69423;47.608;19.366;2023-11-18T01:55:57;11.70;;;11.17;;
80115;SDS011;69423;47.608;19.366;2023-11-18T01:56:29;12.07;;;11.53;;
80115;SDS011;69423;47.608;19.366;2023-11-18T01:57:03;10.83;;;10.43;;
80115;SDS011;69423;47.608;19.366;2023-11-18T01:57:36;10.57;;;10.27;;
80115;SDS011;69423;47.608;19.366;2023-11-18T01:58:07;11.37;;;11.10;;
80115;SDS011;69423;47.608;19.366;2023-11-18T01:58:41;10.57;;;10.50;;
80115;SDS011;69423;47.608;19.366;2023-11-18T01:59:13;10.63;;;10.63;;
80115;SDS011;69423;47.608;19.366;2023-11-18T01:59:50;10.67;;;10.63;;
80115;SDS011;69423;47.608;19.366;2023-11-18T02:00:21;10.80;;;10.60;;
80115;SDS011;69423;47.608;19.366;2023-11-18T02:00:53;11.30;;;10.93;;
80115;SDS011;69423;47.608;19.366;2023-11-18T02:01:28;11.07;;;10.67;;
80115;SDS011;69423;47.608;19.366;2023-11-18T02:02:01;10.37;;;10.00;;
80115;SDS011;69423;47.608;19.366;2023-11-18T02:02:32;10.97;;;10.67;;
80115;SDS011;69423;47.608;19.366;2023-11-18T02:03:05;10.77;;;10.77;;
80115;SDS011;69423;47.608;19.366;2023-11-18T02:03:36;9.83;;;9.83;;
80115;SDS011;69423;47.608;19.366;2023-11-18T02:04:08;10.37;;;10.33;;
80115;SDS011;69423;47.608;19.366;2023-11-18T02:04:40;11.23;;;10.87;;
80115;SDS011;69423;47.608;19.366;2023-11-18T02:05:11;11.40;;;10.90;;
80115;SDS011;69423;47.608;19.366;2023-11-18T02:05:43;11.03;;;10.67;;
80115;SDS011;69423;47.608;19.366;2023-11-18T02:06:14;9.80;;;9.77;;
80115;SDS011;69423;47.608;19.366;2023-11-18T02:06:50;9.97;;;9.90;;
80115;SDS011;69423;47.608;19.366;2023-11-18T02:07:22;10.63;;;10.30;;
80115;SDS011;69423;47.608;19.366;2023-11-18T02:07:54;11.40;;;10.93;;
80115;SDS011;69423;47.608;19.366;2023-11-18T02:08:27;11.67;;;11.30;;
80115;SDS011;69423;47.608;19.366;2023-11-18T02:08:59;11.23;;;10.97;;
80115;SDS011;69423;47.608;19.366;2023-11-18T02:09:30;11.43;;;11.17;;
80115;SDS011;69423;47.608;19.366;2023-11-18T02:10:02;11.30;;;10.90;;
80115;SDS011;69423;47.608;19.366;2023-11-18T02:10:35;11.40;;;11.10;;
80115;SDS011;69423;47.608;19.366;2023-11-18T02:11:36;10.50;;;10.20;;
80115;SDS011;69423;47.608;19.366;2023-11-18T02:13:09;11.20;;;10.83;;
80115;SDS011;69423;47.608;19.366;2023-11-18T02:13:50;10.80;;;10.40;;
80115;SDS011;69423;47.608;19.366;2023-11-18T02:14:25;10.37;;;9.90;;
80115;SDS011;69423;47.608;19.366;2023-11-18T02:14:59;11.07;;;10.70;;
80115;SDS011;69423;47.608;19.366;2023-11-18T02:15:35;10.37;;;10.27;;
80115;SDS011;69423;47.608;19.366;2023-11-18T02:16:08;10.53;;;10.53;;
80115;SDS011;69423;47.608;19.366;2023-11-18T02:16:39;10.13;;;10.13;;
80115;SDS011;69423;47.608;19.366;2023-11-18T02:17:13;9.67;;;9.67;;
80115;SDS011;69423;47.608;19.366;2023-11-18T02:17:47;10.47;;;10.33;;
80115;SDS011;69423;47.608;19.366;2023-11-18T02:18:26;10.80;;;10.60;;
80115;SDS011;69423;47.608;19.366;2023-11-18T02:18:59;9.67;;;9.67;;
80115;SDS011;69423;47.608;19.366;2023-11-18T02:19:35;9.40;;;9.40;;
80115;SDS011;69423;47.608;19.366;2023-11-18T02:20:09;10.63;;;10.40;;
80115;SDS011;69423;47.608;19.366;2023-11-18T02:20:46;10.87;;;10.37;;
80115;SDS011;69423;47.608;19.366;2023-11-18T02:21:18;10.07;;;9.87;;
80115;SDS011;69423;47.608;19.366;2023-11-18T02:21:52;10.23;;;10.20;;
80115;SDS011;69423;47.608;19.366;2023-11-18T02:22:25;10.53;;;10.53;;
80115;SDS011;69423;47.608;19.366;2023-11-18T02:22:57;10.13;;;10.13;;
80115;SDS011;69423;47.608;19.366;2023-11-18T02:23:29;9.67;;;9.67;;
80115;SDS011;69423;47.608;19.366;2023-11-18T02:24:01;10.20;;;10.17;;
80115;SDS011;69423;47.608;19.366;2023-11-18T02:24:32;10.37;;;10.17;;
80115;SDS011;69423;47.608;19.366;2023-11-18T02:25:08;9.90;;;9.90;;
80115;SDS011;69423;47.608;19.366;2023-11-18T02:25:44;9.67;;;9.67;;
80115;SDS011;69423;47.608;19.366;2023-11-18T02:26:23;10.00;;;10.00;;
80115;SDS011;69423;47.608;19.366;2023-11-18T02:26:56;9.83;;;9.83;;
80115;SDS011;69423;47.608;19.366;2023-11-18T02:27:28;9.93;;;9.90;;
80115;SDS011;69423;47.608;19.366;2023-11-18T02:27:59;9.53;;;9.43;;
80115;SDS011;69423;47.608;19.366;2023-11-18T02:28:30;9.83;;;9.80;;
80115;SDS011;69423;47.608;19.366;2023-11-18T02:29:01;10.63;;;10.40;;
80115;SDS011;69423;47.608;19.366;2023-11-18T02:29:34;11.23;;;10.73;;
80115;SDS011;69423;47.608;19.366;2023-11-18T02:30:12;11.00;;;10.40;;
80115;SDS011;69423;47.608;19.366;2023-11-18T02:30:47;10.03;;;9.87;;
80115;SDS011;69423;47.608;19.366;2023-11-18T02:31:29;9.93;;;9.63;;
80115;SDS011;69423;47.608;19.366;2023-11-18T02:32:15;10.77;;;10.30;;
80115;SDS011;69423;47.608;19.366;2023-11-18T02:33:48;11.03;;;10.47;;
80115;SDS011;69423;47.608;19.366;2023-11-18T02:34:30;9.60;;;9.57;;
80115;SDS011;69423;47.608;19.366;2023-11-18T02:35:09;9.67;;;9.67;;
80115;SDS011;69423;47.608;19.366;2023-11-18T02:35:53;10.33;;;10.17;;
80115;SDS011;69423;47.608;19.366;2023-11-18T02:36:31;10.87;;;10.67;;
80115;SDS011;69423;47.608;19.366;2023-11-18T02:37:10;8.93;;;8.93;;
80115;SDS011;69423;47.608;19.366;2023-11-18T02:37:44;9.13;;;9.03;;
80115;SDS011;69423;47.608;19.366;2023-11-18T02:38:18;9.77;;;9.70;;
80115;SDS011;69423;47.608;19.366;2023-11-18T02:39:08;9.93;;;9.93;;
80115;SDS011;69423;47.608;19.366;2023-11-18T02:39:53;9.93;;;9.93;;
80115;SDS011;69423;47.608;19.366;2023-11-18T02:40:34;9.50;;;9.50;;
80115;SDS011;69423;47.608;19.366;2023-11-18T02:41:09;9.40;;;9.37;;
80115;SDS011;69423;47.608;19.366;2023-11-18T02:41:44;9.10;;;9.10;;
80115;SDS011;69423;47.608;19.366;2023-11-18T02:42:18;9.80;;;9.80;;
80115;SDS011;69423;47.608;19.366;2023-11-18T02:42:53;9.30;;;9.30;;
80115;SDS011;69423;47.608;19.366;2023-11-18T02:43:26;9.47;;;9.30;;
80115;SDS011;69423;47.608;19.366;2023-11-18T02:44:02;9.33;;;9.03;;
80115;SDS011;69423;47.608;19.366;2023-11-18T02:44:39;10.40;;;9.97;;
80115;SDS011;69423;47.608;19.366;2023-11-18T02:45:13;10.40;;;10.00;;
80115;SDS011;69423;47.608;19.366;2023-11-18T02:45:48;10.37;;;9.93;;
80115;SDS011;69423;47.608;19.366;2023-11-18T02:46:20;9.83;;;9.67;;
80115;SDS011;69423;47.608;19.366;2023-11-18T02:46:58;9.17;;;9.17;;
80115;SDS011;69423;47.608;19.366;2023-11-18T02:47:30;9.10;;;9.10;;
80115;SDS011;69423;47.608;19.366;2023-11-18T02:48:01;8.77;;;8.77;;
80115;SDS011;69423;47.608;19.366;2023-11-18T02:48:33;9.33;;;9.17;;
80115;SDS011;69423;47.608;19.366;2023-11-18T02:49:06;8.97;;;8.83;;
80115;SDS011;69423;47.608;19.366;2023-11-18T02:49:38;8.97;;;8.93;;
80115;SDS011;69423;47.608;19.366;2023-11-18T02:50:10;9.60;;;9.50;;
80115;SDS011;69423;47.608;19.366;2023-11-18T02:50:41;9.90;;;9.63;;
80115;SDS011;69423;47.608;19.366;2023-11-18T02:51:13;9.83;;;9.70;;
80115;SDS011;69423;47.608;19.366;2023-11-18T02:51:44;9.83;;;9.83;;
80115;SDS011;69423;47.608;19.366;2023-11-18T02:52:18;9.80;;;9.70;;
80115;SDS011;69423;47.608;19.366;2023-11-18T02:52:49;9.63;;;9.60;;
80115;SDS011;69423;47.608;19.366;2023-11-18T02:53:20;9.77;;;9.73;;
80115;SDS011;69423;47.608;19.366;2023-11-18T02:53:51;9.63;;;9.37;;
80115;SDS011;69423;47.608;19.366;2023-11-18T02:54:23;10.30;;;10.03;;
80115;SDS011;69423;47.608;19.366;2023-11-18T02:54:54;9.80;;;9.67;;
80115;SDS011;69423;47.608;19.366;2023-11-18T02:55:25;9.30;;;9.20;;
80115;SDS011;69423;47.608;19.366;2023-11-18T02:55:56;9.57;;;9.57;;
80115;SDS011;69423;47.608;19.366;2023-11-18T02:56:33;9.60;;;9.50;;
80115;SDS011;69423;47.608;19.366;2023-11-18T02:57:04;9.00;;;8.83;;
80115;SDS011;69423;47.608;19.366;2023-11-18T02:57:35;9.50;;;9.47;;
80115;SDS011;69423;47.608;19.366;2023-11-18T02:58:07;9.37;;;9.27;;
80115;SDS011;69423;47.608;19.366;2023-11-18T02:58:38;9.20;;;9.00;;
80115;SDS011;69423;47.608;19.366;2023-11-18T02:59:09;9.30;;;9.23;;
80115;SDS011;69423;47.608;19.366;2023-11-18T02:59:40;9.47;;;9.13;;
80115;SDS011;69423;47.608;19.366;2023-11-18T03:00:11;9.70;;;9.30;;
80115;SDS011;69423;47.608;19.366;2023-11-18T03:00:52;10.07;;;9.67;;
80115;SDS011;69423;47.608;19.366;2023-11-18T03:01:24;8.60;;;8.57;;
80115;SDS011;69423;47.608;19.366;2023-11-18T03:01:55;9.00;;;9.00;;
80115;SDS011;69423;47.608;19.366;2023-11-18T03:02:27;9.43;;;9.37;;
80115;SDS011;69423;47.608;19.366;2023-11-18T03:03:01;9.47;;;9.33;;
80115;SDS011;69423;47.608;19.366;2023-11-18T03:03:33;9.07;;;9.07;;
80115;SDS011;69423;47.608;19.366;2023-11-18T03:04:04;9.27;;;9.27;;
80115;SDS011;69423;47.608;19.366;2023-11-18T03:04:35;8.83;;;8.83;;
80115;SDS011;69423;47.608;19.366;2023-11-18T03:05:07;8.67;;;8.63;;
80115;SDS011;69423;47.608;19.366;2023-11-18T03:05:41;9.40;;;9.40;;
80115;SDS011;69423;47.608;19.366;2023-11-18T03:06:12;8.57;;;8.57;;
80115;SDS011;69423;47.608;19.366;2023-11-18T03:06:43;9.03;;;9.03;;
80115;SDS011;69423;47.608;19.366;2023-11-18T03:07:14;9.60;;;9.60;;
80115;SDS011;69423;47.608;19.366;2023-11-18T03:07:45;8.70;;;8.67;;
80115;SDS011;69423;47.608;19.366;2023-11-18T03:08:20;9.57;;;9.40;;
80115;SDS011;69423;47.608;19.366;2023-11-18T03:08:51;9.43;;;9.07;;
80115;SDS011;69423;47.608;19.366;2023-11-18T03:09:23;8.80;;;8.57;;
80115;SDS011;69423;47.608;19.366;2023-11-18T03:09:58;8.10;;;8.10;;